sensor_id;sensor_type;location;lat;lon;timestamp;temperature;humidity
85191;DHT22;75560;0.000;0.000;2024-03-06T00:02:05;19.50;51.70
85191;DHT22;75560;0.000;0.000;2024-03-06T00:04:30;19.50;51.60
85191;DHT22;75560;0.000;0.000;2024-03-06T00:06:56;19.50;51.60
85191;DHT22;75560;0.000;0.000;2024-03-06T00:09:23;19.50;51.50
85191;DHT22;75560;0.000;0.000;2024-03-06T00:11:49;19.50;51.50
85191;DHT22;75560;0.000;0.000;2024-03-06T00:14:16;19.50;51.40
85191;DHT22;75560;0.000;0.000;2024-03-06T00:16:42;19.50;51.40
85191;DHT22;75560;0.000;0.000;2024-03-06T00:19:08;19.50;51.40
85191;DHT22;75560;0.000;0.000;2024-03-06T00:21:34;19.50;51.40
85191;DHT22;75560;0.000;0.000;2024-03-06T00:24:01;19.50;51.30
85191;DHT22;75560;0.000;0.000;2024-03-06T00:26:27;19.50;51.40
85191;DHT22;75560;0.000;0.000;2024-03-06T00:28:53;19.60;51.40
85191;DHT22;75560;0.000;0.000;2024-03-06T00:31:18;19.50;51.40
85191;DHT22;75560;0.000;0.000;2024-03-06T00:33:44;19.50;51.40
85191;DHT22;75560;0.000;0.000;2024-03-06T00:36:09;19.50;51.40
85191;DHT22;75560;0.000;0.000;2024-03-06T00:38:35;19.50;51.50
85191;DHT22;75560;0.000;0.000;2024-03-06T00:41:01;19.50;51.50
85191;DHT22;75560;0.000;0.000;2024-03-06T00:43:26;19.50;51.60
85191;DHT22;75560;0.000;0.000;2024-03-06T00:45:52;19.50;51.60
85191;DHT22;75560;0.000;0.000;2024-03-06T00:48:17;19.50;51.70
85191;DHT22;75560;0.000;0.000;2024-03-06T00:50:45;19.40;51.60
85191;DHT22;75560;0.000;0.000;2024-03-06T00:53:11;19.40;51.70
85191;DHT22;75560;0.000;0.000;2024-03-06T00:55:37;19.40;51.70
85191;DHT22;75560;0.000;0.000;2024-03-06T00:58:02;19.40;51.80
85191;DHT22;75560;0.000;0.000;2024-03-06T01:00:29;19.40;51.90
85191;DHT22;75560;0.000;0.000;2024-03-06T01:02:55;19.40;51.90
85191;DHT22;75560;0.000;0.000;2024-03-06T01:05:21;19.40;52.00
85191;DHT22;75560;0.000;0.000;2024-03-06T01:07:46;19.30;51.90
85191;DHT22;75560;0.000;0.000;2024-03-06T01:10:12;19.30;52.00
85191;DHT22;75560;0.000;0.000;2024-03-06T01:12:38;19.30;52.10
85191;DHT22;75560;0.000;0.000;2024-03-06T01:15:04;19.30;52.00
85191;DHT22;75560;0.000;0.000;2024-03-06T01:17:30;19.30;52.10
85191;DHT22;75560;0.000;0.000;2024-03-06T01:19:55;19.30;52.10
85191;DHT22;75560;0.000;0.000;2024-03-06T01:22:21;19.30;52.20
85191;DHT22;75560;0.000;0.000;2024-03-06T01:24:46;19.20;52.10
85191;DHT22;75560;0.000;0.000;2024-03-06T01:27:16;19.20;52.10
85191;DHT22;75560;0.000;0.000;2024-03-06T01:29:41;19.30;52.20
85191;DHT22;75560;0.000;0.000;2024-03-06T01:32:08;19.30;52.20
85191;DHT22;75560;0.000;0.000;2024-03-06T01:34:35;19.30;52.20
85191;DHT22;75560;0.000;0.000;2024-03-06T01:37:01;19.20;52.10
85191;DHT22;75560;0.000;0.000;2024-03-06T01:39:26;19.30;52.20
85191;DHT22;75560;0.000;0.000;2024-03-06T01:41:52;19.30;52.20
85191;DHT22;75560;0.000;0.000;2024-03-06T01:44:18;19.30;52.10
85191;DHT22;75560;0.000;0.000;2024-03-06T01:46:44;19.30;52.00
85191;DHT22;75560;0.000;0.000;2024-03-06T01:49:15;19.30;52.00
85191;DHT22;75560;0.000;0.000;2024-03-06T01:51:42;19.30;52.00
85191;DHT22;75560;0.000;0.000;2024-03-06T01:54:10;19.30;52.10
85191;DHT22;75560;0.000;0.000;2024-03-06T01:56:38;19.30;52.00
85191;DHT22;75560;0.000;0.000;2024-03-06T01:59:06;19.30;51.90
85191;DHT22;75560;0.000;0.000;2024-03-06T02:01:32;19.30;51.90
85191;DHT22;75560;0.000;0.000;2024-03-06T02:03:58;19.30;51.90
85191;DHT22;75560;0.000;0.000;2024-03-06T02:06:25;19.30;51.80
85191;DHT22;75560;0.000;0.000;2024-03-06T02:08:51;19.40;51.90
85191;DHT22;75560;0.000;0.000;2024-03-06T02:11:16;19.40;51.90
85191;DHT22;75560;0.000;0.000;2024-03-06T02:13:42;19.40;51.80
85191;DHT22;75560;0.000;0.000;2024-03-06T02:16:10;19.30;51.80
85191;DHT22;75560;0.000;0.000;2024-03-06T02:18:35;19.40;51.70
85191;DHT22;75560;0.000;0.000;2024-03-06T02:21:02;19.40;51.80
85191;DHT22;75560;0.000;0.000;2024-03-06T02:23:28;19.40;51.70
85191;DHT22;75560;0.000;0.000;2024-03-06T02:25:53;19.40;51.70
85191;DHT22;75560;0.000;0.000;2024-03-06T02:28:19;19.40;51.70
85191;DHT22;75560;0.000;0.000;2024-03-06T02:30:44;19.40;51.60
85191;DHT22;75560;0.000;0.000;2024-03-06T02:33:10;19.40;51.70
85191;DHT22;75560;0.000;0.000;2024-03-06T02:35:36;19.40;51.60
85191;DHT22;75560;0.000;0.000;2024-03-06T02:38:03;19.40;51.60
85191;DHT22;75560;0.000;0.000;2024-03-06T02:40:30;19.40;51.60
85191;DHT22;75560;0.000;0.000;2024-03-06T02:42:56;19.40;51.60
85191;DHT22;75560;0.000;0.000;2024-03-06T02:45:22;19.40;51.60
85191;DHT22;75560;0.000;0.000;2024-03-06T02:47:47;19.50;51.60
85191;DHT22;75560;0.000;0.000;2024-03-06T02:50:13;19.40;51.60
85191;DHT22;75560;0.000;0.000;2024-03-06T02:52:39;19.40;51.60
85191;DHT22;75560;0.000;0.000;2024-03-06T02:55:05;19.40;51.60
85191;DHT22;75560;0.000;0.000;2024-03-06T02:57:31;19.40;51.70
85191;DHT22;75560;0.000;0.000;2024-03-06T02:59:58;19.40;51.10
85191;DHT22;75560;0.000;0.000;2024-03-06T03:02:24;19.40;51.70
85191;DHT22;75560;0.000;0.000;2024-03-06T03:04:52;19.40;51.70
85191;DHT22;75560;0.000;0.000;2024-03-06T03:07:18;19.40;51.70
85191;DHT22;75560;0.000;0.000;2024-03-06T03:09:45;19.40;51.80
85191;DHT22;75560;0.000;0.000;2024-03-06T03:12:11;19.40;51.90
85191;DHT22;75560;0.000;0.000;2024-03-06T03:14:37;19.40;51.80
85191;DHT22;75560;0.000;0.000;2024-03-06T03:17:03;19.40;51.80
85191;DHT22;75560;0.000;0.000;2024-03-06T03:19:31;19.30;51.90
85191;DHT22;75560;0.000;0.000;2024-03-06T03:21:57;19.30;52.00
85191;DHT22;75560;0.000;0.000;2024-03-06T03:24:23;19.30;52.00
85191;DHT22;75560;0.000;0.000;2024-03-06T03:26:51;19.30;52.10
85191;DHT22;75560;0.000;0.000;2024-03-06T03:29:17;19.30;52.10
85191;DHT22;75560;0.000;0.000;2024-03-06T03:31:42;19.30;52.10
85191;DHT22;75560;0.000;0.000;2024-03-06T03:34:08;19.20;52.10
85191;DHT22;75560;0.000;0.000;2024-03-06T03:36:34;19.20;52.10
85191;DHT22;75560;0.000;0.000;2024-03-06T03:39:00;19.20;52.20
85191;DHT22;75560;0.000;0.000;2024-03-06T03:41:25;19.20;52.20
85191;DHT22;75560;0.000;0.000;2024-03-06T03:43:51;19.20;52.20
85191;DHT22;75560;0.000;0.000;2024-03-06T03:46:17;19.20;52.20
85191;DHT22;75560;0.000;0.000;2024-03-06T03:48:42;19.20;52.20
85191;DHT22;75560;0.000;0.000;2024-03-06T03:51:08;19.20;52.20
85191;DHT22;75560;0.000;0.000;2024-03-06T03:53:34;19.20;52.20
85191;DHT22;75560;0.000;0.000;2024-03-06T03:56:00;19.20;52.10
85191;DHT22;75560;0.000;0.000;2024-03-06T03:58:26;19.20;52.10
85191;DHT22;75560;0.000;0.000;2024-03-06T04:00:52;19.20;52.10
85191;DHT22;75560;0.000;0.000;2024-03-06T04:03:21;19.20;52.10
85191;DHT22;75560;0.000;0.000;2024-03-06T04:05:48;19.20;52.00
85191;DHT22;75560;0.000;0.000;2024-03-06T04:08:13;19.20;52.00
85191;DHT22;75560;0.000;0.000;2024-03-06T04:10:39;19.20;52.00
85191;DHT22;75560;0.000;0.000;2024-03-06T04:13:05;19.20;52.00
85191;DHT22;75560;0.000;0.000;2024-03-06T04:15:31;19.20;52.10
85191;DHT22;75560;0.000;0.000;2024-03-06T04:17:57;19.20;52.00
85191;DHT22;75560;0.000;0.000;2024-03-06T04:20:23;19.20;52.00
85191;DHT22;75560;0.000;0.000;2024-03-06T04:22:48;19.30;52.10
85191;DHT22;75560;0.000;0.000;2024-03-06T04:25:16;19.20;52.00
85191;DHT22;75560;0.000;0.000;2024-03-06T04:27:43;19.30;51.90
85191;DHT22;75560;0.000;0.000;2024-03-06T04:30:08;19.30;51.90
85191;DHT22;75560;0.000;0.000;2024-03-06T04:32:34;19.30;51.90
85191;DHT22;75560;0.000;0.000;2024-03-06T04:35:01;19.30;52.10
85191;DHT22;75560;0.000;0.000;2024-03-06T04:37:27;19.30;52.10
85191;DHT22;75560;0.000;0.000;2024-03-06T04:39:54;19.30;52.30
85191;DHT22;75560;0.000;0.000;2024-03-06T04:42:20;19.40;52.30
85191;DHT22;75560;0.000;0.000;2024-03-06T04:44:46;19.40;52.20
85191;DHT22;75560;0.000;0.000;2024-03-06T04:47:11;19.40;52.30
85191;DHT22;75560;0.000;0.000;2024-03-06T04:49:37;19.40;52.40
85191;DHT22;75560;0.000;0.000;2024-03-06T04:52:03;19.40;52.80
85191;DHT22;75560;0.000;0.000;2024-03-06T04:54:29;19.50;53.10
85191;DHT22;75560;0.000;0.000;2024-03-06T04:56:55;19.50;55.20
85191;DHT22;75560;0.000;0.000;2024-03-06T04:59:21;19.50;55.00
85191;DHT22;75560;0.000;0.000;2024-03-06T05:01:46;19.50;54.80
85191;DHT22;75560;0.000;0.000;2024-03-06T05:04:12;19.50;54.80
85191;DHT22;75560;0.000;0.000;2024-03-06T05:06:38;19.50;54.80
85191;DHT22;75560;0.000;0.000;2024-03-06T05:09:03;19.50;54.70
85191;DHT22;75560;0.000;0.000;2024-03-06T05:11:30;19.50;54.00
85191;DHT22;75560;0.000;0.000;2024-03-06T05:13:57;19.50;53.80
85191;DHT22;75560;0.000;0.000;2024-03-06T05:16:23;19.40;54.40
85191;DHT22;75560;0.000;0.000;2024-03-06T05:18:49;19.40;53.80
85191;DHT22;75560;0.000;0.000;2024-03-06T05:21:15;19.40;53.70
85191;DHT22;75560;0.000;0.000;2024-03-06T05:23:41;19.40;54.20
85191;DHT22;75560;0.000;0.000;2024-03-06T05:26:06;19.30;54.40
85191;DHT22;75560;0.000;0.000;2024-03-06T05:28:32;19.30;54.50
85191;DHT22;75560;0.000;0.000;2024-03-06T05:30:58;19.30;54.60
85191;DHT22;75560;0.000;0.000;2024-03-06T05:33:26;19.30;54.50
85191;DHT22;75560;0.000;0.000;2024-03-06T05:35:53;19.20;54.40
85191;DHT22;75560;0.000;0.000;2024-03-06T05:38:19;19.20;54.80
85191;DHT22;75560;0.000;0.000;2024-03-06T05:40:44;19.20;54.90
85191;DHT22;75560;0.000;0.000;2024-03-06T05:43:10;19.20;54.10
85191;DHT22;75560;0.000;0.000;2024-03-06T05:45:36;19.20;54.70
85191;DHT22;75560;0.000;0.000;2024-03-06T05:48:01;19.30;54.70
85191;DHT22;75560;0.000;0.000;2024-03-06T05:50:29;19.30;54.40
85191;DHT22;75560;0.000;0.000;2024-03-06T05:52:55;19.30;54.20
85191;DHT22;75560;0.000;0.000;2024-03-06T05:55:20;19.40;53.80
85191;DHT22;75560;0.000;0.000;2024-03-06T05:57:46;19.40;53.40
85191;DHT22;75560;0.000;0.000;2024-03-06T06:00:13;19.40;52.40
85191;DHT22;75560;0.000;0.000;2024-03-06T06:02:39;19.40;52.90
85191;DHT22;75560;0.000;0.000;2024-03-06T06:05:05;19.50;53.10
85191;DHT22;75560;0.000;0.000;2024-03-06T06:07:30;19.50;53.40
85191;DHT22;75560;0.000;0.000;2024-03-06T06:09:56;19.50;53.40
85191;DHT22;75560;0.000;0.000;2024-03-06T06:12:21;19.60;53.10
85191;DHT22;75560;0.000;0.000;2024-03-06T06:14:47;19.60;53.00
85191;DHT22;75560;0.000;0.000;2024-03-06T06:17:13;19.70;52.90
85191;DHT22;75560;0.000;0.000;2024-03-06T06:19:42;19.70;53.00
85191;DHT22;75560;0.000;0.000;2024-03-06T06:22:08;19.90;52.10
85191;DHT22;75560;0.000;0.000;2024-03-06T06:24:33;19.90;51.00
85191;DHT22;75560;0.000;0.000;2024-03-06T06:26:59;19.90;49.70
85191;DHT22;75560;0.000;0.000;2024-03-06T06:29:24;19.90;49.20
85191;DHT22;75560;0.000;0.000;2024-03-06T06:31:50;19.90;49.30
85191;DHT22;75560;0.000;0.000;2024-03-06T06:34:15;20.00;49.40
85191;DHT22;75560;0.000;0.000;2024-03-06T06:36:45;20.10;49.30
85191;DHT22;75560;0.000;0.000;2024-03-06T06:39:11;20.10;49.10
85191;DHT22;75560;0.000;0.000;2024-03-06T06:41:37;20.10;48.90
85191;DHT22;75560;0.000;0.000;2024-03-06T06:44:03;20.20;48.90
85191;DHT22;75560;0.000;0.000;2024-03-06T06:46:28;20.20;48.80
85191;DHT22;75560;0.000;0.000;2024-03-06T06:48:54;20.20;48.70
85191;DHT22;75560;0.000;0.000;2024-03-06T06:51:20;20.30;48.60
85191;DHT22;75560;0.000;0.000;2024-03-06T06:53:46;20.30;48.50
85191;DHT22;75560;0.000;0.000;2024-03-06T06:56:11;20.30;48.60
85191;DHT22;75560;0.000;0.000;2024-03-06T06:58:37;20.20;47.80
85191;DHT22;75560;0.000;0.000;2024-03-06T07:01:03;20.20;48.30
85191;DHT22;75560;0.000;0.000;2024-03-06T07:03:29;20.20;48.60
85191;DHT22;75560;0.000;0.000;2024-03-06T07:05:56;20.20;49.00
85191;DHT22;75560;0.000;0.000;2024-03-06T07:08:22;20.20;49.30
85191;DHT22;75560;0.000;0.000;2024-03-06T07:10:48;20.20;49.40
85191;DHT22;75560;0.000;0.000;2024-03-06T07:13:13;20.20;49.20
85191;DHT22;75560;0.000;0.000;2024-03-06T07:15:39;20.20;49.40
85191;DHT22;75560;0.000;0.000;2024-03-06T07:18:05;20.20;49.40
85191;DHT22;75560;0.000;0.000;2024-03-06T07:20:30;20.20;49.50
85191;DHT22;75560;0.000;0.000;2024-03-06T07:22:57;20.20;49.60
85191;DHT22;75560;0.000;0.000;2024-03-06T07:25:23;20.20;49.60
85191;DHT22;75560;0.000;0.000;2024-03-06T07:27:48;20.20;49.60
85191;DHT22;75560;0.000;0.000;2024-03-06T07:30:14;20.10;49.80
85191;DHT22;75560;0.000;0.000;2024-03-06T07:32:40;20.20;49.80
85191;DHT22;75560;0.000;0.000;2024-03-06T07:35:06;20.10;49.80
85191;DHT22;75560;0.000;0.000;2024-03-06T07:37:32;20.10;49.90
85191;DHT22;75560;0.000;0.000;2024-03-06T07:39:59;20.10;49.90
85191;DHT22;75560;0.000;0.000;2024-03-06T07:42:25;20.10;50.20
85191;DHT22;75560;0.000;0.000;2024-03-06T07:44:52;20.10;50.10
85191;DHT22;75560;0.000;0.000;2024-03-06T07:47:18;20.00;49.60
85191;DHT22;75560;0.000;0.000;2024-03-06T07:49:44;20.00;49.90
85191;DHT22;75560;0.000;0.000;2024-03-06T07:52:10;20.00;50.00
85191;DHT22;75560;0.000;0.000;2024-03-06T07:54:35;20.00;50.10
85191;DHT22;75560;0.000;0.000;2024-03-06T07:57:01;20.00;50.10
85191;DHT22;75560;0.000;0.000;2024-03-06T07:59:27;20.00;50.20
85191;DHT22;75560;0.000;0.000;2024-03-06T08:01:52;20.00;50.30
85191;DHT22;75560;0.000;0.000;2024-03-06T08:04:18;20.00;50.30
85191;DHT22;75560;0.000;0.000;2024-03-06T08:06:44;20.00;49.90
85191;DHT22;75560;0.000;0.000;2024-03-06T08:09:09;20.00;50.20
85191;DHT22;75560;0.000;0.000;2024-03-06T08:11:35;20.00;50.10
85191;DHT22;75560;0.000;0.000;2024-03-06T08:14:01;20.10;50.10
85191;DHT22;75560;0.000;0.000;2024-03-06T08:16:30;20.10;50.00
85191;DHT22;75560;0.000;0.000;2024-03-06T08:18:55;20.10;50.00
85191;DHT22;75560;0.000;0.000;2024-03-06T08:21:22;20.20;49.90
85191;DHT22;75560;0.000;0.000;2024-03-06T08:23:48;20.10;49.80
85191;DHT22;75560;0.000;0.000;2024-03-06T08:26:14;20.20;49.80
85191;DHT22;75560;0.000;0.000;2024-03-06T08:28:40;20.20;49.70
85191;DHT22;75560;0.000;0.000;2024-03-06T08:31:06;20.20;49.70
85191;DHT22;75560;0.000;0.000;2024-03-06T08:33:31;20.30;49.50
85191;DHT22;75560;0.000;0.000;2024-03-06T08:35:58;20.30;49.50
85191;DHT22;75560;0.000;0.000;2024-03-06T08:38:24;20.30;49.50
85191;DHT22;75560;0.000;0.000;2024-03-06T08:40:49;20.40;49.50
85191;DHT22;75560;0.000;0.000;2024-03-06T08:43:16;20.50;49.30
85191;DHT22;75560;0.000;0.000;2024-03-06T08:45:42;20.40;49.20
85191;DHT22;75560;0.000;0.000;2024-03-06T08:48:08;20.50;49.30
85191;DHT22;75560;0.000;0.000;2024-03-06T08:50:34;20.50;50.10
85191;DHT22;75560;0.000;0.000;2024-03-06T08:53:00;20.50;49.20
85191;DHT22;75560;0.000;0.000;2024-03-06T08:55:27;20.60;49.20
85191;DHT22;75560;0.000;0.000;2024-03-06T08:57:53;20.60;49.20
85191;DHT22;75560;0.000;0.000;2024-03-06T09:00:19;20.60;48.90
85191;DHT22;75560;0.000;0.000;2024-03-06T09:02:45;20.70;48.60
85191;DHT22;75560;0.000;0.000;2024-03-06T09:05:11;20.70;48.80
85191;DHT22;75560;0.000;0.000;2024-03-06T09:07:38;20.80;48.60
85191;DHT22;75560;0.000;0.000;2024-03-06T09:10:06;20.90;48.30
85191;DHT22;75560;0.000;0.000;2024-03-06T09:12:32;21.10;48.00
85191;DHT22;75560;0.000;0.000;2024-03-06T09:14:58;21.20;47.90
85191;DHT22;75560;0.000;0.000;2024-03-06T09:17:26;21.20;47.90
85191;DHT22;75560;0.000;0.000;2024-03-06T09:19:51;21.20;48.20
85191;DHT22;75560;0.000;0.000;2024-03-06T09:22:17;21.50;48.80
85191;DHT22;75560;0.000;0.000;2024-03-06T09:24:43;21.50;47.60
85191;DHT22;75560;0.000;0.000;2024-03-06T09:27:09;21.30;48.30
85191;DHT22;75560;0.000;0.000;2024-03-06T09:29:34;21.10;48.80
85191;DHT22;75560;0.000;0.000;2024-03-06T09:32:00;21.10;49.20
85191;DHT22;75560;0.000;0.000;2024-03-06T09:34:26;21.10;49.00
85191;DHT22;75560;0.000;0.000;2024-03-06T09:36:51;21.10;49.10
85191;DHT22;75560;0.000;0.000;2024-03-06T09:39:18;21.00;48.90
85191;DHT22;75560;0.000;0.000;2024-03-06T09:41:52;21.00;49.00
85191;DHT22;75560;0.000;0.000;2024-03-06T09:44:18;21.10;48.80
85191;DHT22;75560;0.000;0.000;2024-03-06T09:46:48;21.30;48.50
85191;DHT22;75560;0.000;0.000;2024-03-06T09:49:16;21.20;48.50
85191;DHT22;75560;0.000;0.000;2024-03-06T09:51:49;21.20;48.60
85191;DHT22;75560;0.000;0.000;2024-03-06T09:54:19;21.20;48.70
85191;DHT22;75560;0.000;0.000;2024-03-06T09:56:47;21.10;48.70
85191;DHT22;75560;0.000;0.000;2024-03-06T09:59:14;21.10;48.70
85191;DHT22;75560;0.000;0.000;2024-03-06T10:01:56;21.10;48.60
85191;DHT22;75560;0.000;0.000;2024-03-06T10:04:26;21.10;48.60
85191;DHT22;75560;0.000;0.000;2024-03-06T10:06:59;21.10;48.70
85191;DHT22;75560;0.000;0.000;2024-03-06T10:09:26;21.10;47.20
85191;DHT22;75560;0.000;0.000;2024-03-06T10:11:53;21.00;47.50
85191;DHT22;75560;0.000;0.000;2024-03-06T10:14:19;21.00;47.70
85191;DHT22;75560;0.000;0.000;2024-03-06T10:16:56;21.00;47.80
85191;DHT22;75560;0.000;0.000;2024-03-06T10:19:23;20.90;48.10
85191;DHT22;75560;0.000;0.000;2024-03-06T10:21:49;20.90;48.40
85191;DHT22;75560;0.000;0.000;2024-03-06T10:24:28;20.90;48.40
85191;DHT22;75560;0.000;0.000;2024-03-06T10:26:58;20.90;48.50
85191;DHT22;75560;0.000;0.000;2024-03-06T10:29:26;20.90;48.60
85191;DHT22;75560;0.000;0.000;2024-03-06T10:31:53;20.90;48.60
85191;DHT22;75560;0.000;0.000;2024-03-06T10:34:23;20.90;48.80
85191;DHT22;75560;0.000;0.000;2024-03-06T10:36:57;20.80;49.00
85191;DHT22;75560;0.000;0.000;2024-03-06T10:39:24;20.80;49.00
85191;DHT22;75560;0.000;0.000;2024-03-06T10:41:53;20.80;49.00
85191;DHT22;75560;0.000;0.000;2024-03-06T10:44:21;20.80;49.20
85191;DHT22;75560;0.000;0.000;2024-03-06T10:46:59;20.80;49.40
85191;DHT22;75560;0.000;0.000;2024-03-06T10:49:28;20.80;49.90
85191;DHT22;75560;0.000;0.000;2024-03-06T10:52:02;20.80;50.20
85191;DHT22;75560;0.000;0.000;2024-03-06T10:54:31;20.90;50.20
85191;DHT22;75560;0.000;0.000;2024-03-06T10:56:57;20.90;50.30
85191;DHT22;75560;0.000;0.000;2024-03-06T10:59:28;20.90;50.40
85191;DHT22;75560;0.000;0.000;2024-03-06T11:01:59;20.90;50.40
85191;DHT22;75560;0.000;0.000;2024-03-06T11:04:29;20.90;50.20
85191;DHT22;75560;0.000;0.000;2024-03-06T11:06:59;21.20;49.30
85191;DHT22;75560;0.000;0.000;2024-03-06T11:09:25;21.30;49.10
85191;DHT22;75560;0.000;0.000;2024-03-06T11:11:52;21.50;48.70
85191;DHT22;75560;0.000;0.000;2024-03-06T11:14:22;21.60;48.20
85191;DHT22;75560;0.000;0.000;2024-03-06T11:17:04;22.00;47.20
85191;DHT22;75560;0.000;0.000;2024-03-06T11:19:31;22.50;45.10
85191;DHT22;75560;0.000;0.000;2024-03-06T11:21:57;23.20;43.80
85191;DHT22;75560;0.000;0.000;2024-03-06T11:24:33;23.90;42.10
85191;DHT22;75560;0.000;0.000;2024-03-06T11:27:03;24.00;41.60
85191;DHT22;75560;0.000;0.000;2024-03-06T11:30:11;23.50;42.60
85191;DHT22;75560;0.000;0.000;2024-03-06T11:33:00;23.50;42.70
85191;DHT22;75560;0.000;0.000;2024-03-06T11:35:29;23.40;42.90
85191;DHT22;75560;0.000;0.000;2024-03-06T11:37:55;23.30;43.50
85191;DHT22;75560;0.000;0.000;2024-03-06T11:40:24;23.00;44.10
85191;DHT22;75560;0.000;0.000;2024-03-06T11:42:50;22.80;44.70
85191;DHT22;75560;0.000;0.000;2024-03-06T11:45:19;22.70;44.90
85191;DHT22;75560;0.000;0.000;2024-03-06T11:48:00;22.40;45.60
85191;DHT22;75560;0.000;0.000;2024-03-06T11:50:27;22.10;46.40
85191;DHT22;75560;0.000;0.000;2024-03-06T11:52:53;22.00;46.60
85191;DHT22;75560;0.000;0.000;2024-03-06T11:55:21;22.00;46.80
85191;DHT22;75560;0.000;0.000;2024-03-06T11:57:47;21.80;47.00
85191;DHT22;75560;0.000;0.000;2024-03-06T12:00:13;21.80;47.20
85191;DHT22;75560;0.000;0.000;2024-03-06T12:02:40;21.70;47.30
85191;DHT22;75560;0.000;0.000;2024-03-06T12:05:07;21.70;47.30
85191;DHT22;75560;0.000;0.000;2024-03-06T12:07:47;21.80;47.20
85191;DHT22;75560;0.000;0.000;2024-03-06T12:10:13;21.90;46.90
85191;DHT22;75560;0.000;0.000;2024-03-06T12:12:40;22.30;46.00
85191;DHT22;75560;0.000;0.000;2024-03-06T12:15:09;22.80;44.80
85191;DHT22;75560;0.000;0.000;2024-03-06T12:17:45;23.20;43.90
85191;DHT22;75560;0.000;0.000;2024-03-06T12:20:12;24.10;41.70
85191;DHT22;75560;0.000;0.000;2024-03-06T12:22:54;24.20;41.20
85191;DHT22;75560;0.000;0.000;2024-03-06T12:25:23;23.90;42.30
85191;DHT22;75560;0.000;0.000;2024-03-06T12:27:49;23.90;42.40
85191;DHT22;75560;0.000;0.000;2024-03-06T12:30:19;23.80;42.70
85191;DHT22;75560;0.000;0.000;2024-03-06T12:33:02;23.40;44.00
85191;DHT22;75560;0.000;0.000;2024-03-06T12:35:31;23.30;44.10
85191;DHT22;75560;0.000;0.000;2024-03-06T12:37:57;23.80;41.80
85191;DHT22;75560;0.000;0.000;2024-03-06T12:40:23;24.70;39.40
85191;DHT22;75560;0.000;0.000;2024-03-06T12:42:49;25.10;37.90
85191;DHT22;75560;0.000;0.000;2024-03-06T12:45:15;25.60;36.50
85191;DHT22;75560;0.000;0.000;2024-03-06T12:47:46;25.10;37.60
85191;DHT22;75560;0.000;0.000;2024-03-06T12:50:13;24.00;39.50
85191;DHT22;75560;0.000;0.000;2024-03-06T12:52:39;23.50;40.80
85191;DHT22;75560;0.000;0.000;2024-03-06T12:55:06;23.10;41.50
85191;DHT22;75560;0.000;0.000;2024-03-06T12:57:32;22.80;41.80
85191;DHT22;75560;0.000;0.000;2024-03-06T12:59:58;22.60;42.30
85191;DHT22;75560;0.000;0.000;2024-03-06T13:02:24;22.40;42.00
85191;DHT22;75560;0.000;0.000;2024-03-06T13:04:49;22.30;42.50
85191;DHT22;75560;0.000;0.000;2024-03-06T13:07:15;22.20;42.10
85191;DHT22;75560;0.000;0.000;2024-03-06T13:09:41;22.10;42.20
85191;DHT22;75560;0.000;0.000;2024-03-06T13:12:07;22.00;42.30
85191;DHT22;75560;0.000;0.000;2024-03-06T13:14:32;21.90;42.80
85191;DHT22;75560;0.000;0.000;2024-03-06T13:16:59;21.90;42.30
85191;DHT22;75560;0.000;0.000;2024-03-06T13:19:25;21.80;41.60
85191;DHT22;75560;0.000;0.000;2024-03-06T13:21:50;21.70;41.40
85191;DHT22;75560;0.000;0.000;2024-03-06T13:24:18;21.70;41.60
85191;DHT22;75560;0.000;0.000;2024-03-06T13:26:45;21.70;41.70
85191;DHT22;75560;0.000;0.000;2024-03-06T13:29:12;21.60;41.50
85191;DHT22;75560;0.000;0.000;2024-03-06T13:31:38;21.60;41.60
85191;DHT22;75560;0.000;0.000;2024-03-06T13:34:04;21.60;41.80
85191;DHT22;75560;0.000;0.000;2024-03-06T13:36:30;21.60;41.90
85191;DHT22;75560;0.000;0.000;2024-03-06T13:38:58;21.50;41.70
85191;DHT22;75560;0.000;0.000;2024-03-06T13:41:24;21.50;39.90
85191;DHT22;75560;0.000;0.000;2024-03-06T13:43:49;21.40;37.60
85191;DHT22;75560;0.000;0.000;2024-03-06T13:46:15;21.20;36.40
85191;DHT22;75560;0.000;0.000;2024-03-06T13:48:41;21.00;34.10
85191;DHT22;75560;0.000;0.000;2024-03-06T13:51:06;20.90;33.20
85191;DHT22;75560;0.000;0.000;2024-03-06T13:53:32;20.70;33.50
85191;DHT22;75560;0.000;0.000;2024-03-06T13:55:57;20.90;36.00
85191;DHT22;75560;0.000;0.000;2024-03-06T13:58:23;21.00;35.70
85191;DHT22;75560;0.000;0.000;2024-03-06T14:00:49;21.00;35.20
85191;DHT22;75560;0.000;0.000;2024-03-06T14:03:14;21.00;35.30
85191;DHT22;75560;0.000;0.000;2024-03-06T14:05:40;21.00;34.60
85191;DHT22;75560;0.000;0.000;2024-03-06T14:08:06;20.90;34.50
85191;DHT22;75560;0.000;0.000;2024-03-06T14:10:32;20.80;36.50
85191;DHT22;75560;0.000;0.000;2024-03-06T14:12:59;20.90;37.20
85191;DHT22;75560;0.000;0.000;2024-03-06T14:15:25;20.80;37.50
85191;DHT22;75560;0.000;0.000;2024-03-06T14:17:52;20.90;38.20
85191;DHT22;75560;0.000;0.000;2024-03-06T14:20:19;20.90;38.60
85191;DHT22;75560;0.000;0.000;2024-03-06T14:22:45;20.90;39.00
85191;DHT22;75560;0.000;0.000;2024-03-06T14:25:11;20.90;39.40
85191;DHT22;75560;0.000;0.000;2024-03-06T14:27:37;21.00;39.70
85191;DHT22;75560;0.000;0.000;2024-03-06T14:30:06;21.00;39.90
85191;DHT22;75560;0.000;0.000;2024-03-06T14:32:38;21.00;40.10
85191;DHT22;75560;0.000;0.000;2024-03-06T14:35:04;21.00;39.90
85191;DHT22;75560;0.000;0.000;2024-03-06T14:37:30;21.10;40.30
85191;DHT22;75560;0.000;0.000;2024-03-06T14:39:56;21.10;40.60
85191;DHT22;75560;0.000;0.000;2024-03-06T14:42:22;21.10;40.70
85191;DHT22;75560;0.000;0.000;2024-03-06T14:44:48;21.20;41.30
85191;DHT22;75560;0.000;0.000;2024-03-06T14:47:14;21.30;41.50
85191;DHT22;75560;0.000;0.000;2024-03-06T14:49:43;21.30;41.70
85191;DHT22;75560;0.000;0.000;2024-03-06T14:52:12;21.30;41.90
85191;DHT22;75560;0.000;0.000;2024-03-06T14:54:39;21.40;42.00
85191;DHT22;75560;0.000;0.000;2024-03-06T14:57:06;21.40;42.20
85191;DHT22;75560;0.000;0.000;2024-03-06T14:59:32;21.40;42.30
85191;DHT22;75560;0.000;0.000;2024-03-06T15:01:57;21.40;42.50
85191;DHT22;75560;0.000;0.000;2024-03-06T15:04:23;21.40;42.60
85191;DHT22;75560;0.000;0.000;2024-03-06T15:06:49;21.40;42.80
85191;DHT22;75560;0.000;0.000;2024-03-06T15:09:15;21.40;43.00
85191;DHT22;75560;0.000;0.000;2024-03-06T15:11:50;21.40;43.10
85191;DHT22;75560;0.000;0.000;2024-03-06T15:14:17;21.40;43.20
85191;DHT22;75560;0.000;0.000;2024-03-06T15:16:43;21.40;43.30
85191;DHT22;75560;0.000;0.000;2024-03-06T15:19:09;21.40;43.30
85191;DHT22;75560;0.000;0.000;2024-03-06T15:21:35;21.40;43.40
85191;DHT22;75560;0.000;0.000;2024-03-06T15:24:00;21.40;43.60
85191;DHT22;75560;0.000;0.000;2024-03-06T15:26:26;21.40;43.60
85191;DHT22;75560;0.000;0.000;2024-03-06T15:28:51;21.40;43.60
85191;DHT22;75560;0.000;0.000;2024-03-06T15:31:18;21.40;43.80
85191;DHT22;75560;0.000;0.000;2024-03-06T15:33:44;21.30;43.90
85191;DHT22;75560;0.000;0.000;2024-03-06T15:36:13;21.30;44.10
85191;DHT22;75560;0.000;0.000;2024-03-06T15:38:39;21.20;44.30
85191;DHT22;75560;0.000;0.000;2024-03-06T15:41:04;21.20;44.30
85191;DHT22;75560;0.000;0.000;2024-03-06T15:43:35;21.20;44.50